Time,TemperatureF,DewpointF,PressureIn,WindDirection,WindDirectionDegrees,WindSpeedMPH,WindSpeedGustMPH,Humidity,HourlyPrecipIn,Conditions,Clouds,dailyrainin,SoftwareType,DateUTC
2013-01-30 00:03:00,58.0,53.0,-100.00,SSE,160,16.0,25.0,82,-99.99,,,-99.99,,2013-01-30 05:03:00,
2013-01-30 00:12:00,58.0,53.0,-100.00,SSE,160,15.0,24.0,83,-99.99,,,-99.99,,2013-01-30 05:12:00,
2013-01-30 00:22:00,58.0,53.0,-100.00,SSE,165,16.0,25.0,83,-99.99,,,-99.99,,2013-01-30 05:22:00,
2013-01-30 00:32:00,58.0,53.0,-100.00,South,170,14.0,25.0,83,-99.99,,,-99.99,,2013-01-30 05:32:00,
2013-01-30 00:43:00,58.0,53.0,-100.00,SSE,160,14.0,22.0,84,-99.99,,,-99.99,,2013-01-30 05:43:00,
2013-01-30 00:52:00,58.0,53.0,-100.00,SSE,165,13.0,22.0,84,-99.99,,,-99.99,,2013-01-30 05:52:00,
2013-01-30 01:02:00,58.0,53.0,-100.00,South,170,15.0,24.0,84,-99.99,,,-99.99,,2013-01-30 06:02:00,
2013-01-30 01:11:00,59.0,54.0,-100.00,South,170,16.0,24.0,84,-99.99,,,-99.99,,2013-01-30 06:11:00,
2013-01-30 01:21:00,59.0,54.0,-100.00,South,170,14.0,26.0,83,-99.99,,,-99.99,,2013-01-30 06:21:00,
2013-01-30 01:32:00,60.0,54.0,-100.00,South,170,18.0,29.0,83,-99.99,,,-99.99,,2013-01-30 06:32:00,
2013-01-30 01:42:00,60.0,55.0,-100.00,SSE,165,17.0,32.0,82,-99.99,,,-99.99,,2013-01-30 06:42:00,
2013-01-30 01:52:00,60.0,55.0,-100.00,SSE,165,22.0,32.0,81,-99.99,,,-99.99,,2013-01-30 06:52:00,
2013-01-30 02:02:00,60.0,55.0,-100.00,SSE,160,18.0,30.0,82,-99.99,,,-99.99,,2013-01-30 07:02:00,
2013-01-30 02:11:00,60.0,55.0,-100.00,SSE,160,24.0,32.0,81,-99.99,,,-99.99,,2013-01-30 07:11:00,
2013-01-30 02:21:00,60.0,55.0,-100.00,SSE,165,22.0,31.0,82,-99.99,,,-99.99,,2013-01-30 07:21:00,
2013-01-30 02:32:00,61.0,55.0,-100.00,SSE,160,22.0,32.0,81,-99.99,,,-99.99,,2013-01-30 07:32:00,
2013-01-30 02:42:00,61.0,55.0,-100.00,SSE,165,24.0,35.0,81,-99.99,,,-99.99,,2013-01-30 07:42:00,
2013-01-30 02:52:00,61.0,55.0,-100.00,South,170,21.0,35.0,81,-99.99,,,-99.99,,2013-01-30 07:52:00,
2013-01-30 03:02:00,61.0,55.0,-100.00,South,170,20.0,35.0,81,-99.99,,,-99.99,,2013-01-30 08:02:00,
2013-01-30 03:11:00,61.0,56.0,-100.00,SSE,165,20.0,34.0,82,-99.99,,,-99.99,,2013-01-30 08:11:00,
2013-01-30 03:21:00,61.0,56.0,-100.00,South,170,21.0,35.0,82,-99.99,,,-99.99,,2013-01-30 08:21:00,
2013-01-30 03:32:00,62.0,56.0,-100.00,SSE,165,21.0,37.0,81,-99.99,,,-99.99,,2013-01-30 08:32:00,
2013-01-30 03:42:00,62.0,56.0,-100.00,SSE,165,23.0,35.0,81,-99.99,,,-99.99,,2013-01-30 08:42:00,
2013-01-30 03:52:00,62.0,56.0,-100.00,SSE,165,28.0,39.0,80,-99.99,,,-99.99,,2013-01-30 08:52:00,
2013-01-30 04:02:00,62.0,56.0,-100.00,South,170,25.0,35.0,80,-99.99,,,-99.99,,2013-01-30 09:02:00,
2013-01-30 04:11:00,62.0,56.0,-100.00,SSE,165,27.0,39.0,79,-99.99,,,-99.99,,2013-01-30 09:11:00,
2013-01-30 04:21:00,62.0,55.0,-100.00,South,175,22.0,37.0,79,-99.99,,,-99.99,,2013-01-30 09:21:00,
2013-01-30 04:32:00,62.0,56.0,-100.00,SSE,165,24.0,37.0,79,-99.99,,,-99.99,,2013-01-30 09:32:00,
2013-01-30 04:42:00,62.0,55.0,-100.00,SSE,165,26.0,35.0,79,-99.99,,,-99.99,,2013-01-30 09:42:00,
2013-01-30 04:51:00,62.0,55.0,-100.00,South,170,24.0,35.0,78,-99.99,,,-99.99,,2013-01-30 09:51:00,
2013-01-30 05:01:00,62.0,56.0,-100.00,South,175,22.0,37.0,78,-99.99,,,-99.99,,2013-01-30 10:01:00,
2013-01-30 05:11:00,63.0,56.0,-100.00,South,170,21.0,30.0,78,-99.99,,,-99.99,,2013-01-30 10:11:00,
2013-01-30 05:21:00,61.0,56.0,-100.00,South,175,21.0,34.0,84,-99.99,,,-99.99,,2013-01-30 10:21:00,
2013-01-30 05:32:00,61.0,57.0,-100.00,South,185,20.0,33.0,86,-99.99,,,-99.99,,2013-01-30 10:32:00,
2013-01-30 05:42:00,57.0,54.0,-100.00,West,265,15.0,25.0,89,-99.99,,,-99.99,,2013-01-30 10:42:00,
2013-01-30 05:52:00,56.0,55.0,-100.00,West,280,9.0,14.0,94,16.42,,,-99.99,,2013-01-30 10:52:00,
2013-01-30 06:02:00,55.0,54.0,-100.00,NW,305,7.0,12.0,95,31.73,,,-99.99,,2013-01-30 11:02:00,
2013-01-30 06:11:00,54.0,53.0,-100.00,West,275,12.0,16.0,95,18.70,,,-99.99,,2013-01-30 11:11:00,
2013-01-30 06:22:00,54.0,53.0,-100.00,WNW,300,9.0,17.0,96,18.11,,,-99.99,,2013-01-30 11:22:00,
2013-01-30 06:33:00,53.0,52.0,-100.00,WNW,285,16.0,22.0,95,-99.99,,,-99.99,,2013-01-30 11:33:00,
2013-01-30 06:42:00,53.0,52.0,-100.00,WNW,290,12.0,17.0,95,11.89,,,-99.99,,2013-01-30 11:42:00,
2013-01-30 06:52:00,53.0,51.0,-100.00,WNW,290,12.0,19.0,94,19.84,,,-99.99,,2013-01-30 11:52:00,
2013-01-30 07:02:00,53.0,51.0,-100.00,WNW,295,11.0,18.0,94,9.06,,,-99.99,,2013-01-30 12:02:00,
2013-01-30 07:12:00,53.0,51.0,-100.00,West,265,7.0,12.0,94,5.08,,,-99.99,,2013-01-30 12:12:00,
2013-01-30 07:22:00,53.0,51.0,-100.00,WNW,285,7.0,12.0,93,5.67,,,-99.99,,2013-01-30 12:22:00,
2013-01-30 07:33:00,53.0,51.0,-100.00,WSW,255,4.0,9.0,94,8.50,,,-99.99,,2013-01-30 12:33:00,
2013-01-30 07:43:00,52.0,51.0,-100.00,SSW,195,2.0,9.0,95,9.06,,,-99.99,,2013-01-30 12:43:00,
2013-01-30 08:03:00,52.0,51.0,-100.00,South,180,6.0,9.0,96,6.77,,,-99.99,,2013-01-30 13:03:00,
2013-01-30 08:12:00,52.0,51.0,-100.00,SSE,155,4.0,9.0,97,5.67,,,-99.99,,2013-01-30 13:12:00,
2013-01-30 08:23:00,53.0,51.0,-100.00,SE,145,5.0,9.0,96,4.53,,,-99.99,,2013-01-30 13:23:00,
2013-01-30 08:33:00,52.0,51.0,-100.00,SE,135,7.0,11.0,97,0.00,,,-99.99,,2013-01-30 13:33:00,
2013-01-30 08:42:00,52.0,51.0,-100.00,SSE,150,6.0,10.0,97,4.53,,,-99.99,,2013-01-30 13:42:00,
2013-01-30 08:52:00,52.0,51.0,-100.00,SSE,155,6.0,9.0,97,0.00,,,-99.99,,2013-01-30 13:52:00,
2013-01-30 09:03:00,52.0,51.0,-100.00,SE,135,10.0,13.0,96,0.00,,,-99.99,,2013-01-30 14:03:00,
2013-01-30 09:12:00,52.0,51.0,-100.00,SE,145,5.0,15.0,96,0.00,,,-99.99,,2013-01-30 14:12:00,
2013-01-30 09:23:00,52.0,51.0,-100.00,SSE,160,9.0,12.0,96,0.00,,,-99.99,,2013-01-30 14:23:00,
2013-01-30 09:33:00,53.0,51.0,-100.00,SSE,150,11.0,15.0,94,0.00,,,-99.99,,2013-01-30 14:33:00,
2013-01-30 09:42:00,52.0,50.0,-100.00,SSE,160,17.0,23.0,92,0.00,,,-99.99,,2013-01-30 14:42:00,
2013-01-30 09:52:00,53.0,51.0,-100.00,SSE,165,19.0,27.0,90,0.00,,,-99.99,,2013-01-30 14:52:00,
2013-01-30 10:03:00,53.0,50.0,-100.00,SSE,150,13.0,25.0,90,0.00,,,-99.99,,2013-01-30 15:03:00,
2013-01-30 10:12:00,53.0,50.0,-100.00,SSE,155,10.0,20.0,90,0.00,,,-99.99,,2013-01-30 15:12:00,
2013-01-30 10:23:00,54.0,51.0,-100.00,SSE,165,12.0,24.0,89,0.00,,,-99.99,,2013-01-30 15:23:00,
2013-01-30 10:33:00,53.0,50.0,-100.00,South,170,10.0,17.0,89,0.00,,,-99.99,,2013-01-30 15:33:00,
2013-01-30 10:43:00,54.0,50.0,-100.00,SSW,195,10.0,17.0,88,0.00,,,-99.99,,2013-01-30 15:43:00,
2013-01-30 10:53:00,54.0,50.0,-100.00,SSW,200,15.0,23.0,87,0.00,,,-99.99,,2013-01-30 15:53:00,
2013-01-30 11:03:00,54.0,50.0,-100.00,South,180,12.0,21.0,87,0.00,,,-99.99,,2013-01-30 16:03:00,
2013-01-30 11:12:00,54.0,50.0,-100.00,South,190,13.0,21.0,87,0.00,,,-99.99,,2013-01-30 16:12:00,
2013-01-30 11:23:00,54.0,50.0,-100.00,South,175,9.0,19.0,87,0.00,,,-99.99,,2013-01-30 16:23:00,
2013-01-30 11:32:00,54.0,50.0,-100.00,SSW,195,11.0,17.0,87,0.00,,,-99.99,,2013-01-30 16:32:00,
2013-01-30 11:42:00,54.0,50.0,-100.00,SSW,195,12.0,20.0,86,0.00,,,-99.99,,2013-01-30 16:42:00,
2013-01-30 11:52:00,54.0,50.0,-100.00,SSW,200,14.0,21.0,85,0.00,,,-99.99,,2013-01-30 16:52:00,
2013-01-30 12:02:00,54.0,50.0,-100.00,SSW,195,16.0,22.0,85,0.00,,,-99.99,,2013-01-30 17:02:00,
2013-01-30 12:12:00,55.0,50.0,-100.00,SSW,195,12.0,21.0,85,0.00,,,-99.99,,2013-01-30 17:12:00,
2013-01-30 12:23:00,54.0,50.0,-100.00,South,185,12.0,21.0,85,0.00,,,-99.99,,2013-01-30 17:23:00,
2013-01-30 12:33:00,55.0,50.0,-100.00,SSW,200,17.0,24.0,85,0.00,,,-99.99,,2013-01-30 17:33:00,
2013-01-30 12:42:00,55.0,50.0,-100.00,South,190,17.0,25.0,84,0.00,,,-99.99,,2013-01-30 17:42:00,
2013-01-30 12:53:00,55.0,50.0,-100.00,SSW,195,21.0,25.0,83,0.00,,,-99.99,,2013-01-30 17:53:00,
2013-01-30 13:03:00,55.0,50.0,-100.00,SSW,195,16.0,27.0,83,0.00,,,-99.99,,2013-01-30 18:03:00,
2013-01-30 13:12:00,55.0,50.0,-100.00,SSW,195,19.0,27.0,82,0.00,,,-99.99,,2013-01-30 18:12:00,
2013-01-30 13:23:00,56.0,50.0,-100.00,SSW,200,20.0,30.0,82,0.00,,,-99.99,,2013-01-30 18:23:00,
2013-01-30 13:33:00,56.0,50.0,-100.00,South,190,19.0,31.0,82,0.00,,,-99.99,,2013-01-30 18:33:00,
2013-01-30 13:42:00,56.0,50.0,-100.00,SSW,195,18.0,27.0,81,0.00,,,-99.99,,2013-01-30 18:42:00,
2013-01-30 13:52:00,56.0,50.0,-100.00,South,185,23.0,32.0,81,0.00,,,-99.99,,2013-01-30 18:52:00,
2013-01-30 14:03:00,56.0,50.0,-100.00,South,190,24.0,34.0,80,0.00,,,-99.99,,2013-01-30 19:03:00,
2013-01-30 14:12:00,56.0,50.0,-100.00,SSW,200,27.0,35.0,79,0.00,,,-99.99,,2013-01-30 19:12:00,
2013-01-30 14:22:00,56.0,49.0,-100.00,SSW,200,19.0,31.0,80,0.00,,,-99.99,,2013-01-30 19:22:00,
2013-01-30 14:33:00,56.0,49.0,-100.00,SSW,195,22.0,32.0,79,0.00,,,-99.99,,2013-01-30 19:33:00,
2013-01-30 14:43:00,55.0,49.0,-100.00,SSW,200,22.0,28.0,80,0.00,,,-99.99,,2013-01-30 19:43:00,
2013-01-30 14:52:00,55.0,49.0,-100.00,SSW,195,21.0,29.0,80,0.00,,,-99.99,,2013-01-30 19:52:00,
2013-01-30 15:03:00,55.0,49.0,-100.00,SSW,195,18.0,34.0,80,0.00,,,-99.99,,2013-01-30 20:03:00,
2013-01-30 15:12:00,55.0,49.0,-100.00,South,190,22.0,32.0,79,0.00,,,-99.99,,2013-01-30 20:12:00,
2013-01-30 15:22:00,55.0,49.0,-100.00,South,180,16.0,30.0,82,0.00,,,-99.99,,2013-01-30 20:22:00,
2013-01-30 15:33:00,54.0,50.0,-100.00,SSW,200,19.0,30.0,85,0.00,,,-99.99,,2013-01-30 20:33:00,
2013-01-30 15:42:00,54.0,49.0,-100.00,South,185,18.0,27.0,85,0.00,,,-99.99,,2013-01-30 20:42:00,
2013-01-30 15:52:00,54.0,49.0,-100.00,South,185,14.0,28.0,83,0.00,,,-99.99,,2013-01-30 20:52:00,
2013-01-30 16:03:00,54.0,49.0,-100.00,South,185,15.0,27.0,83,0.00,,,-99.99,,2013-01-30 21:03:00,
2013-01-30 16:12:00,54.0,49.0,-100.00,SSW,195,24.0,32.0,83,0.00,,,-99.99,,2013-01-30 21:12:00,
2013-01-30 16:23:00,53.0,49.0,-100.00,SSW,200,25.0,32.0,83,6.22,,,-99.99,,2013-01-30 21:23:00,
2013-01-30 16:32:00,53.0,48.0,-100.00,SSW,210,21.0,35.0,84,6.22,,,-99.99,,2013-01-30 21:32:00,
2013-01-30 16:42:00,53.0,49.0,-100.00,SSW,205,11.0,24.0,87,6.77,,,-99.99,,2013-01-30 21:42:00,
2013-01-30 16:52:00,52.0,49.0,-100.00,SSW,200,16.0,24.0,91,5.67,,,-99.99,,2013-01-30 21:52:00,
2013-01-30 17:03:00,53.0,49.0,-100.00,SSW,195,14.0,23.0,87,0.00,,,-99.99,,2013-01-30 22:03:00,
2013-01-30 17:12:00,52.0,48.0,-100.00,SSW,195,13.0,25.0,86,0.00,,,-99.99,,2013-01-30 22:12:00,
2013-01-30 17:22:00,53.0,49.0,-100.00,South,175,12.0,20.0,87,0.00,,,-99.99,,2013-01-30 22:22:00,
2013-01-30 17:32:00,53.0,49.0,-100.00,South,180,11.0,20.0,88,0.00,,,-99.99,,2013-01-30 22:32:00,
2013-01-30 17:42:00,53.0,49.0,-100.00,South,185,11.0,17.0,88,0.00,,,-99.99,,2013-01-30 22:42:00,
2013-01-30 17:52:00,53.0,49.0,-100.00,South,185,14.0,19.0,88,0.00,,,-99.99,,2013-01-30 22:52:00,
2013-01-30 18:02:00,53.0,49.0,-100.00,South,175,13.0,21.0,86,0.00,,,-99.99,,2013-01-30 23:02:00,
2013-01-30 18:12:00,53.0,48.0,-100.00,South,180,17.0,27.0,83,0.00,,,-99.99,,2013-01-30 23:12:00,
2013-01-30 18:22:00,53.0,48.0,-100.00,South,185,15.0,25.0,82,0.00,,,-99.99,,2013-01-30 23:22:00,
2013-01-30 18:33:00,53.0,48.0,-100.00,South,180,15.0,23.0,82,0.00,,,-99.99,,2013-01-30 23:33:00,
2013-01-30 18:42:00,53.0,48.0,-100.00,South,175,13.0,25.0,83,0.00,,,-99.99,,2013-01-30 23:42:00,
2013-01-30 18:52:00,53.0,48.0,-100.00,South,185,16.0,22.0,84,0.00,,,-99.99,,2013-01-30 23:52:00,
2013-01-30 19:02:00,53.0,48.0,-100.00,South,175,18.0,27.0,83,0.00,,,-99.99,,2013-01-31 00:02:00,
2013-01-30 19:11:00,53.0,48.0,-100.00,South,185,16.0,27.0,82,7.36,,,-99.99,,2013-01-31 00:11:00,
2013-01-30 19:22:00,46.0,41.0,-100.00,WSW,245,26.0,37.0,83,12.44,,,-99.99,,2013-01-31 00:22:00,
2013-01-30 19:32:00,46.0,40.0,-100.00,WSW,245,25.0,34.0,81,5.67,,,-99.99,,2013-01-31 00:32:00,
2013-01-30 19:42:00,46.0,40.0,-100.00,WSW,245,23.0,32.0,80,0.00,,,-99.99,,2013-01-31 00:42:00,
2013-01-30 19:52:00,45.0,39.0,-100.00,WSW,240,22.0,34.0,80,7.91,,,-99.99,,2013-01-31 00:52:00,
2013-01-30 20:02:00,44.0,39.0,-100.00,SW,230,24.0,37.0,81,10.75,,,-99.99,,2013-01-31 01:02:00,
2013-01-30 20:12:00,43.0,38.0,-100.00,WSW,240,25.0,35.0,81,7.36,,,-99.99,,2013-01-31 01:12:00,
2013-01-30 20:22:00,43.0,38.0,-100.00,SW,230,22.0,31.0,82,9.06,,,-99.99,,2013-01-31 01:22:00,
2013-01-30 20:32:00,42.0,37.0,-100.00,North,0,24.0,35.0,82,11.34,,,-99.99,,2013-01-31 01:32:00,
2013-01-30 20:42:00,39.0,35.0,-100.00,SW,220,25.0,35.0,85,1.10,,,-99.99,,2013-01-31 01:42:00,
2013-01-30 20:52:00,39.0,34.0,-100.00,SW,225,24.0,34.0,83,11.89,,,-99.99,,2013-01-31 01:52:00,
2013-01-30 21:01:00,38.0,34.0,-100.00,SW,220,24.0,33.0,86,9.61,,,-99.99,,2013-01-31 02:01:00,
2013-01-30 21:12:00,38.0,34.0,-100.00,SW,220,23.0,34.0,85,14.17,,,-99.99,,2013-01-31 02:12:00,
2013-01-30 21:22:00,38.0,33.0,-100.00,SW,225,24.0,32.0,84,11.89,,,-99.99,,2013-01-31 02:22:00,
2013-01-30 21:32:00,38.0,33.0,-100.00,SW,220,23.0,32.0,84,10.20,,,-99.99,,2013-01-31 02:32:00,
2013-01-30 21:42:00,38.0,33.0,-100.00,SW,220,23.0,32.0,84,10.20,,,-99.99,,2013-01-31 02:42:00,
2013-01-30 21:52:00,38.0,33.0,-100.00,SW,220,23.0,32.0,84,10.20,,,-99.99,,2013-01-31 02:52:00,
2013-01-30 22:03:00,38.0,33.0,-100.00,SW,220,22.0,31.0,82,0.00,,,-99.99,,2013-01-31 03:03:00,
2013-01-30 22:11:00,38.0,32.0,-100.00,SW,215,25.0,35.0,81,0.00,,,-99.99,,2013-01-31 03:11:00,
2013-01-30 22:21:00,38.0,32.0,-100.00,SW,215,25.0,34.0,78,0.00,,,-99.99,,2013-01-31 03:21:00,
2013-01-30 22:32:00,38.0,31.0,-100.00,SW,220,23.0,32.0,78,0.00,,,-99.99,,2013-01-31 03:32:00,
2013-01-30 22:42:00,37.0,31.0,-100.00,SW,220,26.0,32.0,79,0.00,,,-99.99,,2013-01-31 03:42:00,
2013-01-30 22:51:00,37.0,31.0,-100.00,North,0,22.0,34.0,79,0.00,,,-99.99,,2013-01-31 03:51:00,
2013-01-30 23:02:00,37.0,31.0,-100.00,SW,225,26.0,35.0,79,0.00,,,-99.99,,2013-01-31 04:02:00,
2013-01-30 23:11:00,36.0,31.0,-100.00,North,0,26.0,36.0,81,11.34,,,-99.99,,2013-01-31 04:11:00,
2013-01-30 23:22:00,36.0,30.0,-100.00,WSW,255,30.0,39.0,80,0.00,,,-99.99,,2013-01-31 04:22:00,
2013-01-30 23:32:00,35.0,30.0,-100.00,SW,235,25.0,35.0,80,0.00,,,-99.99,,2013-01-31 04:32:00,
2013-01-30 23:41:00,35.0,28.0,-100.00,WSW,250,21.0,37.0,77,0.00,,,-99.99,,2013-01-31 04:41:00,
2013-01-30 23:51:00,34.0,27.0,-100.00,West,260,23.0,35.0,73,0.00,,,-99.99,,2013-01-31 04:51:00,